KSLC/SLC METAR and TAF weather

Enter ICAO airport designator
Station Type Date Time Source
KSLC METAR 2020/01/23 17:54 UTC NOAA

KSLC 231754Z 12004KT 10SM FEW040 BKN055 BKN070 06/02 A3031 RMK AO2 SLP263 VCSH 60001 T00560017 10056 20028 51006


Station Type Date Time Source
KSLC Decoded METAR 2020/01/23 17:54 UTC NOAA

SALT LAKE CITY INTERNATIONAL AIRPORT , UT, United States (KSLC) 40-47N 111-58W 1286M
Jan 23, 2020 - 12:54 PM EST / 2020.01.23 1754 UTC
Wind: from the ESE (120 degrees) at 5 MPH (4 KT):0
Visibility: 10 mile(s):0
Sky conditions: mostly cloudy
Temperature: 42.1 F (5.6 C)
Dew Point: 35.1 F (1.7 C)
Relative Humidity: 75%
Pressure (altimeter): 30.31 in. Hg (1026 hPa)
Pressure tendency: 0.02 inches (0.6 hPa) higher than three hours ago
ob: KSLC 231754Z 12004KT 10SM FEW040 BKN055 BKN070 06/02 A3031 RMK AO2 SLP263 VCSH 60001 T00560017 10056 20028 51006
cycle: 18

Station Type Date Time Source
KSLC TAF 2020/01/23 18:36 UTC NOAA

TAF KSLC 231733Z 2318/2424 15006KT P6SM SCT020 OVC040
FM232100 33006KT P6SM SCT020 BKN040
FM240300 15006KT P6SM SCT020 BKN040
FM242000 33006KT 6SM -RA BR SCT010 BKN035

Example: see airport list